Time;durP1;ratioP1;P1;durP2;ratioP2;P2;SDS_P1;SDS_P2;PMS_P1;PMS_P2;Temp;Humidity;BMP_temperature;BMP_pressure;BME280_temperature;BME280_humidity;BME280_pressure;Samples;Min_cycle;Max_cycle;Signal;HPM_P1;HPM_P2
2022/10/05 00:02:17;;;;;;;8.27;6.97;;;;;;;13.78;100.00;101704.09;5087160;28;20392;-63
2022/10/05 00:04:42;;;;;;;10.88;6.78;;;;;;;13.77;100.00;101691.88;5089062;28;20048;-63
2022/10/05 00:07:12;;;;;;;7.63;6.72;;;;;;;13.76;100.00;101695.34;5089391;28;20020;-63
2022/10/05 00:09:38;;;;;;;9.15;7.70;;;;;;;13.74;100.00;101695.31;5089648;28;20076;-63
2022/10/05 00:12:15;;;;;;;7.65;6.60;;;;;;;13.73;100.00;101695.22;5089792;28;20497;-63
2022/10/05 00:14:41;;;;;;;9.65;6.97;;;;;;;13.73;100.00;101690.91;5089777;28;20050;-63
2022/10/05 00:17:13;;;;;;;10.13;7.57;;;;;;;13.72;100.00;101688.25;5089469;28;20433;-63
2022/10/05 00:19:39;;;;;;;7.80;6.97;;;;;;;13.73;100.00;101692.63;5088944;28;20434;-63
2022/10/05 00:22:18;;;;;;;8.32;7.28;;;;;;;13.73;100.00;101695.22;5089363;28;20024;-63
2022/10/05 00:24:44;;;;;;;7.93;7.13;;;;;;;13.73;100.00;101684.81;5089412;28;20059;-63
2022/10/05 00:27:17;;;;;;;9.05;7.20;;;;;;;13.71;100.00;101676.94;5089502;28;20244;-63
2022/10/05 00:29:44;;;;;;;7.97;6.93;;;;;;;13.71;100.00;101681.28;5088731;28;20039;-63
2022/10/05 00:32:09;;;;;;;8.90;6.93;;;;;;;13.71;100.00;101681.28;5089462;28;20028;-63
2022/10/05 00:34:35;;;;;;;8.50;7.55;;;;;;;13.71;100.00;101681.28;5089337;28;20038;-63
2022/10/05 00:37:00;;;;;;;8.35;6.82;;;;;;;13.69;100.00;101679.50;5089535;28;20353;-63
2022/10/05 00:39:26;;;;;;;10.20;6.95;;;;;;;13.69;100.00;101678.59;5089253;28;20844;-64
2022/10/05 00:42:14;;;;;;;8.52;7.18;;;;;;;13.68;100.00;101674.25;5088889;28;20060;-63
2022/10/05 00:44:55;;;;;;;8.55;7.40;;;;;;;13.65;100.00;101675.03;5088358;28;20031;-63
2022/10/05 00:47:55;;;;;;;8.18;7.38;;;;;;;13.64;100.00;101669.75;5088444;28;20050;-63
2022/10/05 00:51:01;;;;;;;9.23;7.28;;;;;;;13.63;100.00;101674.09;5050809;28;20037;-63
2022/10/05 00:53:38;;;;;;;8.70;7.30;;;;;;;13.63;100.00;101684.53;5087525;28;20032;-63
2022/10/05 00:56:21;;;;;;;9.48;7.18;;;;;;;13.60;100.00;101679.19;5088688;28;20162;-63
2022/10/05 00:58:47;;;;;;;9.30;7.75;;;;;;;13.59;100.00;101679.16;5088398;28;20194;-63
2022/10/05 01:01:16;;;;;;;12.32;7.60;;;;;;;13.58;100.00;101665.28;5088195;28;20256;-63
2022/10/05 01:04:08;;;;;;;9.55;7.57;;;;;;;13.57;100.00;101669.59;5088572;28;20028;-63
2022/10/05 01:06:51;;;;;;;;;;;;;;;13.57;100.00;101676.50;5063166;28;20054;-63
2022/10/05 01:09:39;;;;;;;8.70;7.40;;;;;;;13.55;100.00;101667.75;5074648;28;19916;-63
2022/10/05 01:12:17;;;;;;;8.68;7.55;;;;;;;13.55;100.00;101660.84;5088398;28;20261;-63
2022/10/05 01:14:54;;;;;;;10.55;7.40;;;;;;;13.55;100.00;101665.16;5087872;28;20036;-63
2022/10/05 01:17:28;;;;;;;8.70;7.85;;;;;;;13.53;100.00;101651.19;5089147;28;20074;-63
2022/10/05 01:20:24;;;;;;;8.05;7.25;;;;;;;13.53;100.00;101656.38;5088042;28;20028;-63
2022/10/05 01:23:14;;;;;;;10.70;7.68;;;;;;;13.51;100.00;101645.91;5088262;28;20107;-63
2022/10/05 01:26:00;;;;;;;8.50;7.60;;;;;;;13.50;100.00;101640.66;5087766;28;20024;-63
2022/10/05 01:28:35;;;;;;;9.80;7.75;;;;;;;13.48;100.00;101644.91;5088407;28;20084;-63
2022/10/05 01:31:12;;;;;;;11.38;7.82;;;;;;;13.47;100.00;101641.44;5087867;28;20020;-63
2022/10/05 01:33:45;;;;;;;8.23;7.10;;;;;;;13.43;100.00;101640.47;5087733;28;20016;-63
2022/10/05 01:36:16;;;;;;;8.43;7.65;;;;;;;13.44;100.00;101639.63;5088096;28;20035;-62
2022/10/05 01:38:58;;;;;;;8.75;7.72;;;;;;;13.43;100.00;101632.66;5087667;28;20504;-63
2022/10/05 01:42:03;;;;;;;10.45;8.20;;;;;;;13.42;100.00;101636.06;5087792;28;20286;-63
2022/10/05 01:44:36;;;;;;;9.23;7.13;;;;;;;13.41;100.00;101631.72;5087943;28;20115;-63
2022/10/05 01:47:27;;;;;;;9.07;7.90;;;;;;;13.40;100.00;101626.47;5079344;28;20028;-63
2022/10/05 01:49:52;;;;;;;;;;;;;;;13.39;100.00;101627.28;5085755;28;20036;-63
2022/10/05 01:52:39;;;;;;;10.25;8.30;;;;;;;13.39;100.00;101630.78;5087893;28;20283;-63
2022/10/05 01:55:11;;;;;;;8.82;7.85;;;;;;;13.37;100.00;101629.81;5087507;28;20070;-63
2022/10/05 01:58:06;;;;;;;8.85;7.88;;;;;;;13.35;100.00;101618.47;5087322;28;20069;-63
2022/10/05 02:00:38;;;;;;;8.57;7.78;;;;;;;13.35;100.00;101610.66;5068964;28;20389;-63
2022/10/05 02:03:25;;;;;;;9.43;7.80;;;;;;;13.35;100.00;101615.00;5073566;28;20027;-62
2022/10/05 02:05:58;;;;;;;9.98;8.10;;;;;;;13.34;100.00;101601.09;5087403;28;20115;-62
2022/10/05 02:08:51;;;;;;;9.65;7.57;;;;;;;13.32;100.00;101602.75;5086560;28;20077;-63
2022/10/05 02:11:17;;;;;;;9.35;7.53;;;;;;;13.29;100.00;101603.53;5086978;28;20023;-63
2022/10/05 02:13:59;;;;;;;8.10;7.40;;;;;;;13.28;100.00;101606.09;5087449;28;20050;-63
2022/10/05 02:16:41;;;;;;;8.98;7.97;;;;;;;13.28;100.00;101593.06;5086520;28;20046;-62
2022/10/05 02:19:28;;;;;;;9.05;8.10;;;;;;;13.27;100.00;101596.53;5083852;28;20514;-63
2022/10/05 02:22:00;;;;;;;9.13;7.40;;;;;;;13.26;100.00;101589.56;5087092;28;20039;-63
2022/10/05 02:24:31;;;;;;;9.30;8.40;;;;;;;13.26;100.00;101597.38;5087237;28;20024;-63
2022/10/05 02:26:57;;;;;;;9.90;8.10;;;;;;;13.25;100.00;101590.38;5087133;28;20058;-63
2022/10/05 02:29:28;;;;;;;8.80;7.90;;;;;;;13.25;100.00;101583.47;5087170;28;20465;-63
2022/10/05 02:32:03;;;;;;;9.98;8.82;;;;;;;13.23;100.00;101579.94;5086855;28;20087;-62
2022/10/05 02:34:40;;;;;;;8.82;7.93;;;;;;;13.22;100.00;101578.16;5086959;28;20054;-62
2022/10/05 02:37:29;;;;;;;9.48;8.57;;;;;;;13.20;100.00;101579.84;5083555;28;20073;-63
2022/10/05 02:40:07;;;;;;;12.85;8.40;;;;;;;13.20;100.00;101570.28;5086986;28;20352;-63
2022/10/05 02:43:06;;;;;;;10.70;9.02;;;;;;;13.17;100.00;101567.59;5086868;28;20047;-62
2022/10/05 02:45:55;;;;;;;9.52;8.05;;;;;;;13.17;100.00;101559.78;5086634;28;20024;-62
2022/10/05 02:49:02;;;;;;;9.25;8.25;;;;;;;13.15;100.00;101561.44;5087523;28;20036;-63
2022/10/05 02:51:35;;;;;;;9.75;8.45;;;;;;;13.15;100.00;101553.63;5087067;28;20028;-63
2022/10/05 02:54:10;;;;;;;8.73;7.78;;;;;;;13.15;100.00;101560.59;5086669;28;20043;-63
2022/10/05 02:56:41;;;;;;;11.98;8.70;;;;;;;13.13;100.00;101563.09;5087151;28;20052;-63
2022/10/05 02:59:13;;;;;;;8.82;8.02;;;;;;;13.12;100.00;101552.66;5086818;28;20168;-63
2022/10/05 03:01:54;;;;;;;10.27;8.98;;;;;;;13.14;100.00;101554.50;5087548;28;20134;-63
2022/10/05 03:04:26;;;;;;;10.32;8.32;;;;;;;13.12;100.00;101552.66;5086722;28;20089;-62
2022/10/05 03:07:09;;;;;;;11.55;8.57;;;;;;;13.12;100.00;101539.66;5087074;28;20020;-63
2022/10/05 03:09:55;;;;;;;12.07;8.63;;;;;;;13.09;100.00;101533.53;5072433;28;20505;-63
2022/10/05 03:12:23;;;;;;;9.60;8.48;;;;;;;13.08;100.00;101542.16;5086111;28;20499;-63
2022/10/05 03:15:13;;;;;;;10.30;8.70;;;;;;;13.07;100.00;101543.00;5086779;28;20448;-62
2022/10/05 03:18:10;;;;;;;9.90;8.10;;;;;;;13.05;100.00;101525.56;5087138;28;20270;-63
2022/10/05 03:21:09;;;;;;;10.10;8.38;;;;;;;13.03;100.00;101525.50;5086881;28;20137;-63
2022/10/05 03:23:43;;;;;;;11.88;9.57;;;;;;;13.02;100.00;101533.28;5086250;28;20041;-63
2022/10/05 03:26:24;;;;;;;10.57;9.30;;;;;;;13.00;100.00;101534.94;5086542;28;20115;-63
2022/10/05 03:29:25;;;;;;;9.73;8.70;;;;;;;12.99;100.00;101533.19;5090247;28;20110;-63
2022/10/05 03:31:57;;;;;;;;;;;;;;;12.97;100.00;101536.59;5090803;28;20077;-62
2022/10/05 03:34:41;;;;;;;11.10;8.52;;;;;;;12.95;100.00;101538.25;5090442;28;20334;-63
2022/10/05 03:37:21;;;;;;;9.90;8.88;;;;;;;12.93;100.00;101534.72;5090427;28;20022;-62
2022/10/05 03:40:09;;;;;;;9.95;8.93;;;;;;;12.93;100.00;101533.84;5089464;28;20110;-62
2022/10/05 03:42:47;;;;;;;10.23;9.15;;;;;;;12.91;100.00;101530.31;5069989;28;20561;-63
2022/10/05 03:45:22;;;;;;;11.93;8.65;;;;;;;12.91;100.00;101526.00;5087140;28;20361;-62
2022/10/05 03:48:07;;;;;;;10.77;8.98;;;;;;;12.89;100.00;101535.47;5089898;28;20024;-62
2022/10/05 03:50:41;;;;;;;10.57;8.93;;;;;;;12.89;100.00;101535.47;5089799;28;20388;-62
2022/10/05 03:53:18;;;;;;;9.50;8.38;;;;;;;12.89;100.00;101527.66;5089721;28;20051;-62
2022/10/05 03:55:55;;;;;;;11.20;9.75;;;;;;;12.89;100.00;101537.16;5089892;28;20035;-62
2022/10/05 03:58:28;;;;;;;10.88;9.23;;;;;;;12.89;100.00;101531.97;5089543;28;20036;-63
2022/10/05 04:01:00;;;;;;;12.85;9.05;;;;;;;12.90;100.00;101524.22;5089691;28;20159;-63
2022/10/05 04:03:40;;;;;;;10.90;9.80;;;;;;;12.89;100.00;101532.88;5089412;28;20024;-63
2022/10/05 04:06:13;;;;;;;12.13;9.70;;;;;;;12.90;100.00;101532.03;5090146;28;20456;-63
2022/10/05 04:08:55;;;;;;;9.65;8.65;;;;;;;12.91;100.00;101538.13;5089860;28;20119;-62
2022/10/05 04:11:28;;;;;;;10.10;8.50;;;;;;;12.90;100.00;101532.03;5089191;28;20024;-63
2022/10/05 04:13:59;;;;;;;12.23;9.57;;;;;;;12.90;100.00;101538.97;5089984;28;20024;-63
2022/10/05 04:16:33;;;;;;;12.85;9.93;;;;;;;12.89;100.00;101527.66;5088877;28;20563;-63
2022/10/05 04:19:13;;;;;;;13.98;10.93;;;;;;;12.89;100.00;101531.97;5089487;28;20506;-62
2022/10/05 04:21:53;;;;;;;10.77;9.40;;;;;;;12.90;100.00;101538.97;5089504;28;20027;-63
2022/10/05 04:24:27;;;;;;;11.05;9.95;;;;;;;12.90;100.00;101538.97;5089148;28;20028;-63
2022/10/05 04:27:05;;;;;;;10.82;9.68;;;;;;;12.90;100.00;101537.22;5088587;28;20028;-62
2022/10/05 04:29:43;;;;;;;10.90;9.80;;;;;;;12.89;100.00;101539.78;5089287;28;20032;-63
2022/10/05 04:32:14;;;;;;;11.27;9.35;;;;;;;12.88;100.00;101531.06;5089141;28;20235;-63
2022/10/05 04:35:04;;;;;;;15.35;10.65;;;;;;;12.87;100.00;101529.31;5088796;28;20048;-63
2022/10/05 04:37:38;;;;;;;16.65;9.05;;;;;;;12.84;100.00;101524.88;5088736;28;20024;-62
2022/10/05 04:40:06;;;;;;;11.23;8.93;;;;;;;12.85;100.00;101520.56;5087354;28;20519;-62
2022/10/05 04:42:54;;;;;;;9.70;8.70;;;;;;;12.86;100.00;101517.16;5088926;28;20301;-62
2022/10/05 04:46:05;;;;;;;10.13;9.13;;;;;;;12.87;100.00;101524.13;5089357;28;20815;-62
2022/10/05 04:48:54;;;;;;;12.18;8.30;;;;;;;12.87;100.00;101515.44;5077627;28;20048;-62
2022/10/05 04:51:33;;;;;;;9.65;8.65;;;;;;;12.87;100.00;101515.44;5063860;28;20030;-63
2022/10/05 04:54:04;;;;;;;8.88;8.07;;;;;;;12.87;100.00;101508.50;5088445;28;20099;-62
2022/10/05 04:56:37;;;;;;;9.70;7.97;;;;;;;12.89;100.00;101512.06;5088566;28;20375;-62
2022/10/05 04:59:36;;;;;;;8.27;7.47;;;;;;;12.91;100.00;101510.41;5088541;28;20436;-62
2022/10/05 05:02:19;;;;;;;9.75;7.82;;;;;;;12.91;100.00;101507.78;5058829;28;20107;-63
2022/10/05 05:04:58;;;;;;;9.32;6.40;;;;;;;12.93;100.00;101508.69;5060310;28;20056;-62
2022/10/05 05:07:47;;;;;;;12.80;7.30;;;;;;;12.94;100.00;101505.28;5058783;28;20017;-63
2022/10/05 05:10:31;;;;;;;9.70;7.00;;;;;;;12.96;100.00;101506.22;5049609;28;20048;-63
2022/10/05 05:13:08;;;;;;;7.75;6.43;;;;;;;12.97;100.00;101510.59;5057085;28;20021;-63
2022/10/05 05:15:50;;;;;;;9.25;5.85;;;;;;;12.99;100.00;101507.16;5051659;28;20040;-62
2022/10/05 05:18:37;;;;;;;8.32;5.88;;;;;;;13.00;100.00;101503.72;5048800;28;20070;-63
2022/10/05 05:21:31;;;;;;;7.13;5.03;;;;;;;13.00;100.00;101503.72;5053958;28;20364;-62
2022/10/05 05:24:21;;;;;;;8.52;5.50;;;;;;;13.01;100.00;101505.47;5054150;28;20067;-63
2022/10/05 05:27:09;;;;;;;7.25;5.60;;;;;;;13.02;100.00;101504.66;5072940;28;20030;-62
2022/10/05 05:30:11;;;;;;;6.55;5.47;;;;;;;13.01;100.00;101505.47;5061628;28;20028;-62
2022/10/05 05:33:01;;;;;;;7.22;5.50;;;;;;;13.00;100.00;101503.72;5058391;28;20013;-63
2022/10/05 05:35:53;;;;;;;7.10;5.43;;;;;;;12.99;100.00;101502.81;5061837;28;20029;-62
2022/10/05 05:38:29;;;;;;;7.63;6.13;;;;;;;12.97;100.00;101496.69;5066415;28;20039;-62
2022/10/05 05:41:33;;;;;;;6.13;5.53;;;;;;;12.97;100.00;101484.56;5062222;28;20040;-62
2022/10/05 05:44:29;;;;;;;6.88;6.18;;;;;;;12.96;100.00;101493.22;5064806;28;20270;-63
2022/10/05 05:47:12;;;;;;;6.80;5.47;;;;;;;12.96;100.00;101481.91;5056123;28;20507;-62
2022/10/05 05:50:09;;;;;;;6.75;6.00;;;;;;;12.97;100.00;101492.38;5064108;28;20016;-62
2022/10/05 05:52:39;;;;;;;6.82;5.63;;;;;;;12.96;100.00;101481.91;5063120;28;20020;-63
2022/10/05 05:55:14;;;;;;;6.55;5.95;;;;;;;12.95;100.00;101483.63;5060919;28;20048;-63
2022/10/05 05:57:49;;;;;;;6.20;5.15;;;;;;;12.97;100.00;101483.69;5052111;28;20028;-63
2022/10/05 06:00:22;;;;;;;7.53;5.00;;;;;;;12.96;100.00;101474.13;5052522;28;20033;-63
2022/10/05 06:03:00;;;;;;;7.72;5.05;;;;;;;12.96;100.00;101472.41;5051569;28;20032;-63
2022/10/05 06:05:35;;;;;;;5.45;4.85;;;;;;;12.99;100.00;101475.94;5051728;28;20044;-62
2022/10/05 06:08:16;;;;;;;5.43;4.45;;;;;;;13.00;100.00;101481.19;5066454;28;20230;-62
2022/10/05 06:10:51;;;;;;;;;;;;;;;13.01;100.00;101477.75;5068189;28;20028;-62
2022/10/05 06:13:24;;;;;;;6.70;4.72;;;;;;;13.02;100.00;101476.94;5073697;28;19919;-62
2022/10/05 06:15:58;;;;;;;4.78;4.05;;;;;;;13.04;100.00;101480.44;5067676;28;20498;-63
2022/10/05 06:18:24;;;;;;;5.78;4.60;;;;;;;13.06;100.00;101475.31;5050949;28;20025;-62
2022/10/05 06:20:56;;;;;;;6.15;4.65;;;;;;;13.06;100.00;101477.91;5048219;28;20088;-63
2022/10/05 06:23:37;;;;;;;7.30;4.50;;;;;;;13.08;100.00;101482.31;5066705;28;20051;-63
2022/10/05 06:26:13;;;;;;;5.72;4.32;;;;;;;13.08;100.00;101469.31;5063759;28;20098;-62
2022/10/05 06:28:40;;;;;;;6.07;4.03;;;;;;;13.09;100.00;101473.69;5057650;28;20456;-63
2022/10/05 06:31:29;;;;;;;5.50;4.15;;;;;;;13.11;100.00;101470.25;5058766;28;20050;-63
2022/10/05 06:34:03;;;;;;;6.40;4.03;;;;;;;13.11;100.00;101478.94;5066920;28;20029;-63
2022/10/05 06:36:42;;;;;;;6.10;4.00;;;;;;;13.12;100.00;101472.88;5059155;28;20025;-63
2022/10/05 06:39:35;;;;;;;5.43;4.10;;;;;;;13.14;100.00;101476.44;5059748;28;20032;-63
2022/10/05 06:42:18;;;;;;;5.68;4.50;;;;;;;13.16;100.00;101477.38;5061078;28;20052;-63
2022/10/05 06:44:53;;;;;;;5.93;3.92;;;;;;;13.17;100.00;101471.31;5062019;28;20059;-63
2022/10/05 06:47:45;;;;;;;6.57;4.38;;;;;;;13.20;100.00;101475.75;5065341;28;20029;-64
2022/10/05 06:50:28;;;;;;;4.50;3.83;;;;;;;13.23;100.00;101474.94;5069652;28;20028;-64
2022/10/05 06:53:20;;;;;;;6.47;4.78;;;;;;;13.25;100.00;101475.88;5059704;28;20060;-64
2022/10/05 06:55:57;;;;;;;;;;;;;;;13.25;100.00;101468.06;5041536;28;20464;-64
2022/10/05 06:58:50;;;;;;;4.53;4.13;;;;;;;13.26;100.00;101480.25;5062865;28;20158;-64
2022/10/05 07:01:35;;;;;;;5.45;4.53;;;;;;;13.28;100.00;101475.97;5052150;28;20111;-64
2022/10/05 07:04:08;;;;;;;6.75;4.93;;;;;;;13.29;100.00;101480.34;5059828;28;20025;-64
2022/10/05 07:06:39;;;;;;;4.60;4.18;;;;;;;13.31;100.00;101484.75;5057313;28;20047;-63
2022/10/05 07:09:30;;;;;;;4.70;4.18;;;;;;;13.31;100.00;101483.88;5058296;28;20126;-64
2022/10/05 07:12:25;;;;;;;7.60;4.03;;;;;;;13.32;100.00;101480.44;5062671;28;20476;-64
2022/10/05 07:14:59;;;;;;;4.35;3.95;;;;;;;13.34;100.00;101476.16;5062747;28;20056;-64
2022/10/05 07:17:43;;;;;;;5.45;4.55;;;;;;;13.36;100.00;101484.00;5065343;28;20491;-64
2022/10/05 07:20:53;;;;;;;6.97;4.32;;;;;;;13.39;100.00;101477.19;5061066;28;20068;-64
2022/10/05 07:23:38;;;;;;;4.70;4.03;;;;;;;13.41;100.00;101483.31;5055213;28;20109;-64
2022/10/05 07:26:39;;;;;;;5.15;4.28;;;;;;;13.45;100.00;101486.91;5055908;28;20033;-64
2022/10/05 07:29:20;;;;;;;4.88;3.53;;;;;;;13.49;100.00;101485.28;5057184;28;20044;-64
2022/10/05 07:32:04;;;;;;;6.00;3.70;;;;;;;13.53;100.00;101485.44;5058731;28;20028;-64
2022/10/05 07:34:42;;;;;;;7.75;4.18;;;;;;;13.56;100.00;101474.25;5058035;28;20082;-63
2022/10/05 07:40:19;;;;;;;4.68;3.67;;;;;;;13.62;100.00;101483.94;5053843;28;20035;-64
2022/10/05 07:42:58;;;;;;;4.78;3.60;;;;;;;13.63;100.00;101478.81;5065812;28;20052;-64
2022/10/05 07:45:45;;;;;;;4.07;3.67;;;;;;;13.68;100.00;101482.41;5053146;28;20389;-64
2022/10/05 07:48:16;;;;;;;5.57;3.65;;;;;;;13.72;100.00;101482.50;5061849;28;20505;-63
2022/10/05 07:51:11;;;;;;;4.43;3.38;;;;;;;13.75;100.00;101488.69;5066448;28;20043;-64
2022/10/05 07:53:41;;;;;;;4.32;3.90;;;;;;;13.78;100.00;101485.31;5056709;28;20032;-63
2022/10/05 07:56:14;;;;;;;5.80;3.45;;;;;;;13.82;100.00;101489.75;5059452;28;20020;-63
2022/10/05 07:58:45;;;;;;;5.43;3.75;;;;;;;13.86;100.00;101489.00;5064981;28;20465;-64
2022/10/05 08:01:11;;;;;;;;;;;;;;;13.89;100.00;101494.28;5054479;28;20476;-63
2022/10/05 08:04:00;;;;;;;4.95;3.33;;;;;;;13.92;100.00;101493.50;5064056;28;19922;-63
2022/10/05 08:06:25;;;;;;;5.03;3.70;;;;;;;13.93;100.00;101490.94;5063247;28;20476;-63
2022/10/05 08:08:56;;;;;;;3.80;2.75;;;;;;;13.97;100.00;101494.53;5075424;28;20043;-64
2022/10/05 08:11:33;;;;;;;4.10;3.15;;;;;;;14.02;100.00;101484.22;5054128;28;20384;-64
2022/10/05 08:14:28;;;;;;;4.60;3.58;;;;;;;14.04;100.00;101482.53;5066715;28;20627;-64
2022/10/05 08:16:58;;;;;;;4.45;3.17;;;;;;;14.07;100.00;101474.81;5058871;28;20025;-64
2022/10/05 08:19:41;;;;;;;8.35;3.58;;;;;;;14.11;100.00;101474.06;5055371;28;20106;-64
2022/10/05 08:22:17;;;;;;;4.15;3.17;;;;;;;14.16;100.00;101474.16;5053530;28;20564;-64
2022/10/05 08:24:53;;;;;;;3.35;2.80;;;;;;;14.21;100.00;101469.97;5056167;28;20016;-64
2022/10/05 08:27:31;;;;;;;4.18;2.97;;;;;;;14.26;100.00;101464.88;5058288;28;20028;-64
2022/10/05 08:30:08;;;;;;;5.40;3.53;;;;;;;14.29;100.00;101468.47;5068983;28;20460;-64
2022/10/05 08:32:59;;;;;;;2.75;2.47;;;;;;;14.35;100.00;101461.66;5068424;28;20028;-64
2022/10/05 08:35:42;;;;;;;3.75;3.00;;;;;;;14.39;100.00;101456.53;5067338;28;20111;-64
2022/10/05 08:38:30;;;;;;;3.30;2.63;;;;;;;14.43;100.00;101457.50;5078525;28;21152;-64
2022/10/05 08:41:33;;;;;;;4.93;2.80;;;;;;;14.48;100.00;101457.63;5060167;28;20029;-63
2022/10/05 08:44:41;;;;;;;5.25;3.03;;;;;;;14.53;100.00;101461.25;5055450;28;20024;-64
2022/10/05 08:47:28;;;;;;;2.63;2.15;;;;;;;14.57;100.00;101457.84;5059835;28;20032;-64
2022/10/05 08:50:35;;;;;;;3.83;2.72;;;;;;;14.63;100.00;101457.13;5058769;28;20035;-63
2022/10/05 08:53:18;;;;;;;4.78;3.00;;;;;;;14.69;100.00;101456.41;5048418;28;20552;-64
2022/10/05 08:56:21;;;;;;;5.07;2.88;;;;;;;14.73;100.00;101447.81;5051563;28;20461;-63
2022/10/05 08:59:14;;;;;;;5.43;2.83;;;;;;;14.79;100.00;101455.78;5068283;28;20106;-64
2022/10/05 09:01:45;;;;;;;4.25;2.92;;;;;;;14.83;100.00;101442.00;5068159;28;20186;-63
2022/10/05 09:04:13;;;;;;;;;;;;;;;14.85;100.00;101453.38;5063695;28;20084;-64
2022/10/05 09:06:57;;;;;;;4.25;2.17;;;;;;;14.92;100.00;101440.44;5074466;28;20017;-64
2022/10/05 09:09:34;;;;;;;3.17;2.40;;;;;;;14.96;100.00;101434.47;5067948;28;20235;-63
2022/10/05 09:12:17;;;;;;;3.88;2.78;;;;;;;15.03;100.00;101440.69;5067392;28;20044;-64
2022/10/05 09:14:52;;;;;;;4.05;2.28;;;;;;;15.08;100.00;101442.56;5067907;28;20553;-64
2022/10/05 09:17:38;;;;;;;3.55;2.25;;;;;;;15.12;100.00;101436.59;5053269;28;20214;-64
2022/10/05 09:20:21;;;;;;;3.90;2.30;;;;;;;15.17;100.00;101443.63;5066296;28;20163;-63
2022/10/05 09:23:04;;;;;;;5.07;2.80;;;;;;;15.23;100.00;101434.22;5054062;28;20033;-64
2022/10/05 09:25:42;;;;;;;4.10;2.47;;;;;;;15.26;100.00;101438.59;5055926;28;20419;-64
2022/10/05 09:28:26;;;;;;;2.67;2.40;;;;;;;15.31;100.00;101436.97;5066847;28;20028;-64
2022/10/05 09:31:09;;;;;;;3.95;2.38;;;;;;;15.36;100.00;101434.50;5069263;28;20551;-64
2022/10/05 09:33:47;;;;;;;4.10;2.30;;;;;;;15.40;100.00;101436.28;5067099;28;20469;-64
2022/10/05 09:37:02;;;;;;;3.72;2.47;;;;;;;15.44;100.00;101437.25;5067545;28;20122;-63
2022/10/05 09:39:58;;;;;;;3.65;2.05;;;;;;;15.54;100.00;101433.13;5067484;28;20443;-64
2022/10/05 09:42:34;;;;;;;6.25;2.00;;;;;;;15.60;100.00;101434.13;5084238;28;20066;-64
2022/10/05 09:45:20;;;;;;;3.35;2.33;;;;;;;15.61;100.00;101425.41;5075398;28;20116;-64
2022/10/05 09:48:16;;;;;;;2.40;2.20;;;;;;;15.58;100.00;101441.03;5061088;28;20465;-63
2022/10/05 09:50:51;;;;;;;4.25;2.67;;;;;;;15.63;100.00;101427.19;5062792;28;20047;-64
2022/10/05 09:53:39;;;;;;;5.32;2.17;;;;;;;15.68;100.00;101425.56;5062647;28;20103;-64
2022/10/05 09:56:33;;;;;;;4.32;2.10;;;;;;;15.71;100.00;101420.38;5065561;28;20091;-64
2022/10/05 09:59:20;;;;;;;4.97;2.55;;;;;;;15.76;100.00;101421.34;5058676;28;20114;-64
2022/10/05 10:02:13;;;;;;;3.60;2.40;;;;;;;15.80;100.00;101412.72;5059820;28;20047;-64
2022/10/05 10:05:04;;;;;;;5.22;2.60;;;;;;;15.88;100.00;101405.06;5065016;28;20107;-64
2022/10/05 10:08:07;;;;;;;3.65;2.22;;;;;;;15.90;100.00;101402.47;5059897;28;20063;-64
2022/10/05 10:10:55;;;;;;;3.45;2.40;;;;;;;15.97;100.00;101399.13;5057003;28;20024;-64
2022/10/05 10:13:27;;;;;;;5.18;2.72;;;;;;;16.02;100.00;101397.50;5065575;28;20024;-64
2022/10/05 10:16:29;;;;;;;5.20;2.80;;;;;;;16.08;100.00;101401.97;5065400;28;20115;-64
2022/10/05 10:19:09;;;;;;;3.75;2.20;;;;;;;16.14;100.00;101388.09;5064245;28;20028;-64
2022/10/05 10:22:11;;;;;;;3.20;2.08;;;;;;;16.22;100.00;101390.84;5064029;28;20078;-65
2022/10/05 10:24:58;;;;;;;3.13;2.30;;;;;;;16.32;100.00;101377.06;5060945;28;20059;-64
2022/10/05 10:27:33;;;;;;;3.53;2.22;;;;;;;16.41;100.00;101386.81;5065297;28;20594;-64
2022/10/05 10:30:29;;;;;;;2.92;2.13;;;;;;;16.45;99.53;101372.94;5070847;28;20144;-64
2022/10/05 10:33:20;;;;;;;4.43;2.30;;;;;;;16.54;99.63;101375.69;5058970;28;20021;-65
2022/10/05 10:36:22;;;;;;;2.83;2.50;;;;;;;16.56;99.01;101375.72;5058061;28;20472;-64
2022/10/05 10:39:25;;;;;;;2.85;2.38;;;;;;;16.71;100.00;101359.38;5070347;28;20070;-64
2022/10/05 10:42:15;;;;;;;5.35;2.03;;;;;;;16.79;99.15;101368.22;5084702;28;20135;-64
2022/10/05 10:44:59;;;;;;;2.58;1.80;;;;;;;16.80;98.41;101364.72;5091250;28;20036;-64
2022/10/05 10:47:44;;;;;;;3.35;2.10;;;;;;;16.88;98.55;101366.56;5090908;28;20099;-64
2022/10/05 10:50:32;;;;;;;2.75;2.10;;;;;;;16.94;96.71;101361.44;5091414;28;20546;-64
2022/10/05 10:53:14;;;;;;;2.15;1.58;;;;;;;17.06;98.06;101358.09;5089578;28;20024;-64
2022/10/05 10:55:58;;;;;;;5.57;2.13;;;;;;;17.08;97.20;101351.16;5084383;28;20493;-64
2022/10/05 10:58:57;;;;;;;2.63;1.73;;;;;;;17.13;96.93;101352.13;5091163;28;20047;-64
2022/10/05 11:01:39;;;;;;;3.17;1.92;;;;;;;17.09;95.27;101344.19;5090872;28;20035;-65
2022/10/05 11:04:38;;;;;;;5.10;2.03;;;;;;;17.13;96.36;101340.75;5091101;28;20034;-64
2022/10/05 11:07:40;;;;;;;3.38;2.20;;;;;;;17.18;96.60;101332.97;5090737;28;20032;-64
2022/10/05 11:10:24;;;;;;;2.35;1.80;;;;;;;17.24;95.29;101333.94;5091337;28;20242;-64
2022/10/05 11:13:27;;;;;;;3.63;1.95;;;;;;;17.37;96.29;101336.69;5090669;28;20039;-64
2022/10/05 11:16:06;;;;;;;3.55;2.03;;;;;;;17.43;94.31;101339.38;5090866;28;20032;-64
2022/10/05 11:18:49;;;;;;;2.65;1.58;;;;;;;17.50;93.29;101335.09;5090887;28;20518;-64
2022/10/05 11:21:42;;;;;;;3.22;1.95;;;;;;;17.47;93.43;101338.53;5090468;28;20024;-64
2022/10/05 11:24:45;;;;;;;5.57;1.65;;;;;;;17.52;95.55;101342.09;5090909;28;20061;-64
2022/10/05 11:27:44;;;;;;;2.95;1.95;;;;;;;17.54;94.00;101325.53;5090115;28;20024;-64
2022/10/05 11:30:24;;;;;;;2.03;1.55;;;;;;;17.64;94.19;101324.75;5090390;28;20063;-63
2022/10/05 11:33:18;;;;;;;2.33;1.50;;;;;;;17.73;94.58;101324.84;5090697;28;20020;-63
2022/10/05 11:35:51;;;;;;;3.60;1.50;;;;;;;17.85;93.74;101321.47;5083168;28;20378;-63
2022/10/05 11:38:38;;;;;;;3.05;1.70;;;;;;;17.94;92.62;101306.69;5079745;28;20097;-63
2022/10/05 11:41:34;;;;;;;4.00;1.63;;;;;;;17.96;91.49;101308.47;5066675;28;20119;-63
2022/10/05 11:44:29;;;;;;;2.35;1.75;;;;;;;17.99;91.51;101291.84;5072337;28;20050;-63
2022/10/05 11:47:09;;;;;;;3.88;1.92;;;;;;;18.13;91.10;101297.25;5053249;28;20087;-64
2022/10/05 11:50:04;;;;;;;3.75;1.88;;;;;;;18.23;89.97;101296.47;5063049;28;20036;-63
2022/10/05 11:53:00;;;;;;;2.63;1.70;;;;;;;18.28;91.00;101287.72;5066525;28;20032;-62
2022/10/05 11:55:41;;;;;;;4.40;1.38;;;;;;;18.35;92.93;101281.66;5053184;28;20480;-63
2022/10/05 11:58:19;;;;;;;3.20;1.40;;;;;;;18.50;91.91;101278.28;5057387;28;20135;-63
2022/10/05 12:01:11;;;;;;;3.05;1.40;;;;;;;18.75;91.59;101274.88;5075324;28;20032;-63
2022/10/05 12:03:47;;;;;;;2.33;1.30;;;;;;;18.85;88.93;101274.09;5069133;28;20361;-63
2022/10/05 12:06:57;;;;;;;2.35;1.55;;;;;;;18.81;87.89;101272.31;5065515;28;20028;-63
2022/10/05 12:09:37;;;;;;;6.88;1.85;;;;;;;18.74;88.21;101260.03;5067372;28;20330;-62
2022/10/05 12:12:26;;;;;;;3.33;1.30;;;;;;;18.71;88.21;101251.25;5057426;28;20430;-62
2022/10/05 12:15:07;;;;;;;4.25;1.70;;;;;;;18.86;89.04;101243.44;5065997;28;20066;-63
2022/10/05 12:17:39;;;;;;;2.90;1.08;;;;;;;19.03;89.35;101246.13;5062363;28;20031;-63
2022/10/05 12:20:17;;;;;;;1.83;1.15;;;;;;;19.21;87.03;101237.47;5069115;28;20084;-63
2022/10/05 12:22:49;;;;;;;2.15;1.10;;;;;;;19.20;84.91;101239.22;5058949;28;20025;-63
2022/10/05 12:25:24;;;;;;;3.25;1.45;;;;;;;19.32;84.92;101243.59;5058909;28;20464;-63
2022/10/05 12:27:54;;;;;;;4.65;1.38;;;;;;;19.39;84.14;101235.75;5059402;28;20025;-64
2022/10/05 12:30:48;;;;;;;2.20;1.42;;;;;;;19.40;81.97;101233.13;5067924;28;20024;-64
2022/10/05 12:33:39;;;;;;;1.80;1.23;;;;;;;19.47;82.50;101222.59;5048440;28;20036;-64